Hit Tracker is now ESPN Home Run Tracker! Hit Tracker founder Greg Rybarczyk is now collaborating with the ESPN Stats & Information Group to continue tracking all MLB home runs, and helping baseball fans know "How Far It Really Went!™" Please credit any information on this site to ESPN Stats & Information Group. For more information and analysis on home runs, please contact founder Greg Rybarczyk. E-Mail ESPN Home Run Tracker
Main Page | Ballparks | Park Overlays | Glossary | Highlight Homers | Feedback | Bio | 3 Types of HR's | AAA Home Run Derby Last Updated: August 20, 2014, 7:33 am PST
Welcome to the ESPN Home Run Tracker! Check out the ESPN MLB Scoreboard throughout the 2014 season! Contact us at grybar@hittrackeronline.com.
Season:
Ballpark detail for Dodger Stadium
Ballpark # of Home Runs HR per game Avg.
True
Distance
Avg.
Speed
Off
Bat
Avg.
Std.
Dist.
Dodger Stadium 106 1.74 402 102.7 397.7

Scatter Plot of Home Runs Dodger Stadium
 Overlay Ballpark:
Without range rings   With range rings

2014 Season Home Runs for Dodger Stadium
Click headers to sort
Date Video Path Hitter Hitter
Team
Pitcher Pitcher
Team
INN Ballpark ^ Type/
Luck
True
Dist.
Speed
Off
Bat
Elev.
Angle
Horiz.
Angle
Apex Impact Due To: Std.
Dist.
#
Parks
Wind Temp. Alt.
06/02/14 Video View Abreu, Jose CHW Kershaw, Clayton LAD 4 Dodger Stadi... JE 381 101.2 25.5 107.4 70 2 0 0 379 18
05/30/14 Video View Davis, Ike PIT Beckett, Josh LAD 4 Dodger Stadi... ND 450 109.1 24.0 89.1 87 1 0 1 448 29
05/31/14 Video View Ramirez, Hanley LAD Cumpton, Brandon PIT 4 Dodger Stadi... PL 412 102.1 25.7 86.2 81 1 0 1 410 13
05/31/14 Video View Ramirez, Hanley LAD Morris, Bryan PIT 6 Dodger Stadi... JE 412 99.2 31.3 94.0 102 13 0 2 397 3
06/01/14 Video View McCutchen, Andrew PIT Greinke, Zack LAD 3 Dodger Stadi... PL 435 106.8 24.2 86.5 82 0 0 1 434 28
06/01/14 Video View Turner, Justin LAD Volquez, Edinson PIT 4 Dodger Stadi... PL 413 102.2 29.6 100.5 102 3 0 1 409 28
06/01/14 Video View Harrison, Josh PIT Perez, Chris LAD 7 Dodger Stadi... PL 396 102.0 25.2 78.8 74 0 0 1 395 21
05/29/14 Video View Martin, Russell PIT Haren, Dan LAD 6 Dodger Stadi... ND 421 106.5 30.5 108.1 110 1 0 2 418 30
05/29/14 Video View Alvarez, Pedro PIT Haren, Dan LAD 2 Dodger Stadi... ND 426 108.6 32.9 66.2 121 9 0 2 415 30
05/28/14 Video View Puig, Yasiel LAD Bailey, Homer CIN 6 Dodger Stadi... JE 390 102.0 23.2 81.7 67 0 0 0 390 3
05/28/14 Video View Phillips, Brandon CIN Kershaw, Clayton LAD 1 Dodger Stadi... PL 421 108.4 24.5 105.0 77 1 0 1 420 30
05/27/14 Video View Mesoraco, Devin CIN Greinke, Zack LAD 8 Dodger Stadi... PL 401 100.9 30.9 101.9 107 1 -1 1 399 28
05/27/14 Video View Ethier, Andre LAD Simon, Alfredo CIN 2 Dodger Stadi... JE 398 100.9 25.8 81.6 80 0 0 0 397 14
04/04/14 Video View Gonzalez, Adrian LAD Vogelsong, Ryan SF 4 Dodger Stadi... JE/L 378 95.7 32.8 108.0 93 15 -1 1 363 5
04/04/14 Video View Ethier, Andre LAD Vogelsong, Ryan SF 4 Dodger Stadi... PL 381 97.5 34.8 73.0 113 13 -2 2 368 10
04/05/14 Video View Morse, Michael SF Maholm, Paul LAD 4 Dodger Stadi... PL 427 105.8 26.3 101.4 88 6 -1 1 421 30
04/05/14 Video View Sandoval, Pablo SF Maholm, Paul LAD 5 Dodger Stadi... JE 379 103.0 25.5 114.7 65 4 -1 1 376 21
04/05/14 Video View Posey, Buster SF Dominguez, Jose LAD 5 Dodger Stadi... PL 395 102.1 32.4 123.4 92 17 -1 2 378 30
04/06/14 Video View Kemp, Matt LAD Cain, Matt SF 2 Dodger Stadi... PL 419 102.8 28.3 101.8 92 10 0 1 409 28
04/06/14 Video View Ramirez, Hanley LAD Cain, Matt SF 4 Dodger Stadi... ND 425 110.5 33.7 113.4 135 3 0 3 420 30
04/06/14 Video View Kemp, Matt LAD Cain, Matt SF 4 Dodger Stadi... JE 401 100.8 25.7 84.6 81 0 0 1 400 9
04/06/14 Video View Belt, Brandon SF Greinke, Zack LAD 6 Dodger Stadi... PL 418 103.2 30.5 79.4 109 4 0 2 413 29
04/06/14 Video View Pence, Hunter SF Greinke, Zack LAD 6 Dodger Stadi... ND 430 108.0 24.5 79.6 82 0 0 1 429 30
04/06/14 Video View Ramirez, Hanley LAD Huff, David SF 8 Dodger Stadi... JE 413 108.7 19.3 92.2 58 0 0 0 414 12
04/08/14 Video View Gordon, Dee LAD Scherzer, Max DET 1 Dodger Stadi... PL 401 99.7 28.0 82.2 87 3 1 1 396 17
04/08/14 Video View Jackson, Austin DET Haren, Dan LAD 2 Dodger Stadi... JE 379 97.6 31.8 108.8 97 4 1 1 372 16
04/09/14 Video View Castellanos, Nick DET Beckett, Josh LAD 3 Dodger Stadi... JE 411 107.0 20.0 90.8 60 0 0 0 411 2
04/09/14 Video View Gonzalez, Adrian LAD Nathan, Joe DET 9 Dodger Stadi... PL 427 104.9 26.1 95.2 91 1 0 1 426 27
04/09/14 Video View Martinez, Victor DET Jansen, Kenley LAD 10 Dodger Stadi... PL 408 103.2 26.2 79.1 84 0 0 1 407 27
04/18/14 Video View Montero, Miguel ARI Greinke, Zack LAD 6 Dodger Stadi... PL 417 103.1 25.8 86.3 86 1 0 1 416 21
04/18/14 Video View Van Slyke, Scott LAD Miley, Wade ARI 7 Dodger Stadi... JE 386 101.3 25.0 76.7 70 0 -1 1 386 15
04/18/14 Video View Uribe, Juan LAD Reed, Addison ARI 9 Dodger Stadi... PL 369 100.6 30.2 124.0 81 1 -1 1 368 30
04/19/14 Video View Ethier, Andre LAD Bolsinger, Mike ARI 4 Dodger Stadi... JE 382 97.8 28.6 76.1 82 3 -1 1 378 13
04/20/14 Video View Puig, Yasiel LAD Collmenter, Josh ARI 6 Dodger Stadi... JE 409 108.5 20.9 98.2 59 -2 0 0 411 19
04/21/14 Video View Howard, Ryan PHI Maholm, Paul LAD 5 Dodger Stadi... PL 415 101.7 30.0 85.4 107 3 -2 1 412 22
04/21/14 Video View Ruiz, Carlos PHI Dominguez, Jose LAD 9 Dodger Stadi... PL 403 102.5 25.3 99.2 79 0 -1 1 403 19
04/23/14 Video View Nix, Jayson PHI Greinke, Zack LAD 8 Dodger Stadi... PL 395 99.3 32.1 100.9 109 5 -1 2 390 20
04/23/14 Video View Ramirez, Hanley LAD Hollands, Mario PHI 8 Dodger Stadi... PL 435 106.5 24.9 85.9 87 1 -1 1 434 28
04/24/14 Video View Uribe, Juan LAD Kendrick, Kyle PHI 4 Dodger Stadi... PL 389 99.2 33.4 110.3 105 13 -1 2 376 23
04/24/14 Video View Gonzalez, Adrian LAD Adams, Mike PHI 7 Dodger Stadi... PL 430 104.4 27.5 85.4 98 3 -1 1 427 28
04/25/14 Video View Puig, Yasiel LAD Lyles, Jordan COL 1 Dodger Stadi... PL 424 103.6 26.6 82.8 81 7 -1 1 417 24
04/25/14 Video View Tulowitzki, Troy COL Beckett, Josh LAD 2 Dodger Stadi... PL 407 105.9 26.4 113.0 73 8 -1 1 399 30
04/25/14 Video View Dickerson, Corey COL Beckett, Josh LAD 2 Dodger Stadi... JE 400 98.2 29.2 99.2 85 12 -1 1 388 2
04/25/14 Video View Gonzalez, Adrian LAD Hawkins, LaTroy COL 11 Dodger Stadi... PL 400 101.9 26.2 81.4 88 -3 -1 0 404 25
04/26/14 Video View Kemp, Matt LAD Nicasio, Juan COL 3 Dodger Stadi... JE 382 97.3 29.0 75.5 83 7 -1 1 375 3
04/26/14 Video View Gonzalez, Adrian LAD Nicasio, Juan COL 5 Dodger Stadi... PL 391 98.1 31.7 104.8 97 11 -2 1 380 21
04/27/14 Video View Rutledge, Josh COL Ryu, Hyun-Jin LAD 6 Dodger Stadi... PL 398 100.9 33.1 108.8 110 11 -2 2 387 30
05/08/14 Video View Hicks, Brandon SF Beckett, Josh LAD 7 Dodger Stadi... JE 378 101.7 27.6 116.4 74 3 -1 1 376 29
05/09/14 Video View Crawford, Brandon SF Maholm, Paul LAD 5 Dodger Stadi... PL 407 104.3 26.1 74.6 78 3 0 1 403 29
05/09/14 Video View Puig, Yasiel LAD Bumgarner, Madison SF 6 Dodger Stadi... PL 431 104.8 25.3 88.7 81 4 -1 1 427 26
05/10/14 Video View Kemp, Matt LAD Gutierrez, Juan SF 8 Dodger Stadi... JE/L 374 96.0 34.6 70.6 106 13 -1 2 360 4
05/11/14 Video View Puig, Yasiel LAD Hudson, Tim SF 6 Dodger Stadi... PL 394 104.4 29.3 116.9 89 -3 1 1 395 30
05/11/14 Video View Hicks, Brandon SF Kershaw, Clayton LAD 7 Dodger Stadi... PL 414 108.2 30.0 112.3 109 -11 2 2 421 30
05/11/14 Video View Ramirez, Hanley LAD Romo, Sergio SF 9 Dodger Stadi... JE 384 114.3 19.5 113.2 50 -2 0 0 385 24
05/12/14 Video View Yelich, Christian MIA Haren, Dan LAD 3 Dodger Stadi... PL 413 106.2 22.6 97.9 67 0 0 0 413 21
05/12/14 Video View Puig, Yasiel LAD Koehler, Tom MIA 4 Dodger Stadi... ND 438 105.3 27.4 98.4 90 10 1 1 427 29
05/12/14 Video View Johnson, Reed MIA Wilson, Brian LAD 8 Dodger Stadi... ND 408 109.6 27.1 123.7 78 2 1 1 405 30
05/14/14 Video View Lucas, Ed MIA Maholm, Paul LAD 2 Dodger Stadi... PL/L 387 97.5 35.6 106.4 115 16 4 2 366 4
05/14/14 Video View Johnson, Reed MIA Maholm, Paul LAD 4 Dodger Stadi... JE 397 99.2 28.0 98.2 88 0 1 1 394 7
05/14/14 Video View Mathis, Jeff MIA Perez, Chris LAD 4 Dodger Stadi... JE 392 99.1 27.1 80.2 80 1 1 0 389 9
05/14/14 Video View Crawford, Carl LAD DeSclafani, Anthony MIA 6 Dodger Stadi... PL 407 105.3 28.9 63.7 86 5 3 1 399 30
06/03/14 Video View Abreu, Jose CHW Haren, Dan LAD 1 Dodger Stadi... JE/L 354 93.8 38.4 120.1 107 23 1 2 329 1
06/03/14 Video View Flowers, Tyler CHW Haren, Dan LAD 4 Dodger Stadi... PL 381 99.7 29.0 68.7 83 2 0 1 378 25
06/04/14 Video View Garcia, Leury CHW Beckett, Josh LAD 3 Dodger Stadi... JE 416 104.4 22.9 88.5 77 2 0 0 414 17
06/04/14 Video View Dunn, Adam CHW Beckett, Josh LAD 4 Dodger Stadi... PL 401 106.5 22.6 76.8 67 1 0 0 400 24
06/13/14 Video View Kemp, Matt LAD Anderson, Chase ARI 2 Dodger Stadi... PL 405 100.0 30.7 97.2 106 4 -1 1 400 12
06/14/14 Video View Goldschmidt, Paul ARI Haren, Dan LAD 1 Dodger Stadi... PL 416 108.4 25.6 107.3 87 -5 0 1 421 30
06/14/14 Video View Gordon, Dee LAD Collmenter, Josh ARI 3 Dodger Stadi... PL 372 104.5 24.7 61.7 63 -1 -1 1 373 28
06/14/14 Video View Prado, Martin ARI Jansen, Kenley LAD 9 Dodger Stadi... PL 400 101.2 28.1 100.1 95 -2 -1 1 402 26
06/15/14 Video View Goldschmidt, Paul ARI Beckett, Josh LAD 1 Dodger Stadi... PL 395 99.2 30.4 108.3 88 13 0 1 381 21
06/15/14 Video View Montero, Miguel ARI Perez, Chris LAD 9 Dodger Stadi... JE 405 101.1 25.9 95.4 80 2 0 1 402 10
06/16/14 Video View Rosario, Wilin COL Ryu, Hyun-Jin LAD 4 Dodger Stadi... PL 390 104.6 25.7 113.1 70 2 -1 0 388 30
06/17/14 Video View Ramirez, Hanley LAD Chacin, Jhoulys COL 3 Dodger Stadi... JE 387 98.4 28.4 77.1 83 4 -1 1 382 9
06/17/14 Video View Kemp, Matt LAD Chacin, Jhoulys COL 4 Dodger Stadi... JE 384 97.6 32.0 103.2 103 5 -1 2 379 12
06/17/14 Video View Triunfel, Carlos LAD Kahnle, Tommy COL 7 Dodger Stadi... PL 364 97.7 32.6 120.6 90 4 -1 1 359 29
06/27/14 Video View Molina, Yadier STL Ryu, Hyun-Jin LAD 4 Dodger Stadi... PL 363 102.0 27.0 126.5 67 0 0 1 362 29
06/28/14 Video View Carpenter, Matt STL Greinke, Zack LAD 3 Dodger Stadi... PL 425 104.4 26.6 83.6 91 1 1 1 423 28
06/29/14 Video View Ethier, Andre LAD Miller, Shelby STL 5 Dodger Stadi... PL 402 100.5 28.4 79.8 91 1 1 1 399 24
07/01/14 Video View Chisenhall, Lonnie CLE Beckett, Josh LAD 1 Dodger Stadi... PL 385 97.6 33.0 77.9 108 5 0 2 379 10
07/01/14 Video View Gonzalez, Adrian LAD Masterson, Justin CLE 1 Dodger Stadi... PL 401 101.3 26.4 99.5 83 1 0 1 399 16
07/02/14 Video View Raburn, Ryan CLE Ryu, Hyun-Jin LAD 4 Dodger Stadi... PL 400 101.3 31.6 104.6 109 0 1 1 397 30
07/02/14 Video View Van Slyke, Scott LAD Atchison, Scott CLE 8 Dodger Stadi... JE 375 103.0 26.1 119.0 67 1 0 1 373 27
07/10/14 Video View Headley, Chase SD Kershaw, Clayton LAD 6 Dodger Stadi... JE 402 102.4 24.0 96.2 73 1 0 0 401 9
07/11/14 Video View Amarista, Alexi SD Haren, Dan LAD 2 Dodger Stadi... PL/L 384 97.6 35.4 75.9 117 13 0 2 369 11
07/29/14 Video View Kemp, Matt LAD Harang, Aaron ATL 2 Dodger Stadi... JE/L 372 99.2 27.3 69.2 74 1 0 1 370 18
07/29/14 Video View Freeman, Freddie ATL Beckett, Josh LAD 3 Dodger Stadi... JE 397 98.9 28.5 83.5 91 1 0 1 395 9
07/29/14 Video View Kemp, Matt LAD Varvaro, Anthony ATL 7 Dodger Stadi... JE 409 102.0 25.0 87.5 80 1 0 1 408 8
07/30/14 Video View Kemp, Matt LAD Wood, Alex ATL 2 Dodger Stadi... PL 414 103.3 24.9 96.0 77 2 1 0 412 20
07/30/14 Video View Upton, Justin ATL Jansen, Kenley LAD 9 Dodger Stadi... ND 416 107.6 32.2 116.6 112 3 0 2 411 30
07/31/14 Video View Puig, Yasiel LAD Teheran, Julio ATL 3 Dodger Stadi... JE 389 103.1 23.7 102.9 67 0 0 0 389 13
08/01/14 Video View Valbuena, Luis CHC Haren, Dan LAD 2 Dodger Stadi... ND 414 109.2 25.2 67.9 75 0 0 1 413 30
08/02/14 Video View Kemp, Matt LAD Wada, Tsuyoshi CHC 4 Dodger Stadi... PL 406 100.8 29.1 99.0 96 2 1 1 403 23
08/02/14 Video View Ramirez, Hanley LAD Parker, Blake CHC 12 Dodger Stadi... PL 382 103.6 27.1 118.9 73 1 0 1 381 30
08/03/14 Video View Coghlan, Chris CHC Beckett, Josh LAD 5 Dodger Stadi... PL 408 100.8 28.0 97.8 89 3 2 1 403 20
08/03/14 Video View Kemp, Matt LAD Jackson, Edwin CHC 6 Dodger Stadi... ND 432 105.3 27.8 99.2 96 4 1 1 426 30
08/03/14 Video View Valbuena, Luis CHC Perez, Chris LAD 9 Dodger Stadi... PL 416 102.5 26.3 86.5 89 0 1 1 414 20
08/04/14 Video View Hamilton, Josh LAA Greinke, Zack LAD 6 Dodger Stadi... PL 396 99.8 34.2 82.2 125 4 0 2 390 12
08/05/14 Video View Uribe, Juan LAD Santiago, Hector LAA 2 Dodger Stadi... ND 432 108.6 28.3 109.3 98 4 0 1 426 30
08/05/14 Video View Pujols, Albert LAA Wilson, Brian LAD 8 Dodger Stadi... ND 416 109.4 27.3 117.0 85 1 -1 1 415 30
08/16/14 Video View Braun, Ryan MIL Kershaw, Clayton LAD 4 Dodger Stadi... JE 381 96.8 31.5 77.1 98 3 1 2 376 6
08/16/14 Video View Gomez, Carlos MIL Kershaw, Clayton LAD 6 Dodger Stadi... ND 416 107.5 29.9 116.1 98 1 0 1 412 30
08/16/14 Video View Kemp, Matt LAD Rodriguez, Francisco MIL 9 Dodger Stadi... PL 392 105.7 28.2 122.8 79 0 1 1 390 30
08/17/14 Video View Lucroy, Jonathan MIL Haren, Dan LAD 1 Dodger Stadi... PL 414 104.7 30.2 109.3 102 1 3 2 408 30
08/17/14 Video View Gomez, Carlos MIL Frias, Carlos LAD 4 Dodger Stadi... PL 401 103.3 33.9 121.3 105 12 3 2 384 30
08/19/14 Video View Gyorko, Jedd SD Correia, Kevin LAD 1 Dodger Stadi... PL 413 100.9 30.8 94.1 110 4 0 1 407 15
08/19/14 Video View Crawford, Carl LAD Torres, Alex SD 7 Dodger Stadi... PL 388 103.7 25.1 70.6 69 0 -1 0 387 29


About HitTracker | Contact Us
© 2006-2009 HitTrackerOnline